sensor_id;sensor_type;location;lat;lon;timestamp;temperature;humidity
17489;DHT22;8861;52.644;4.734;2023-02-28T00:00:33;4.40;99.90
17489;DHT22;8861;52.644;4.734;2023-02-28T00:03:02;4.30;99.90
17489;DHT22;8861;52.644;4.734;2023-02-28T00:05:29;4.40;99.90
17489;DHT22;8861;52.644;4.734;2023-02-28T00:07:57;4.40;99.90
17489;DHT22;8861;52.644;4.734;2023-02-28T00:10:25;4.40;99.90
17489;DHT22;8861;52.644;4.734;2023-02-28T00:12:55;4.40;99.90
17489;DHT22;8861;52.644;4.734;2023-02-28T00:15:23;4.40;99.90
17489;DHT22;8861;52.644;4.734;2023-02-28T00:17:50;4.40;99.90
17489;DHT22;8861;52.644;4.734;2023-02-28T00:20:19;4.40;99.90
17489;DHT22;8861;52.644;4.734;2023-02-28T00:22:48;4.50;99.90
17489;DHT22;8861;52.644;4.734;2023-02-28T00:25:19;4.50;99.90
17489;DHT22;8861;52.644;4.734;2023-02-28T00:27:47;4.50;99.90
17489;DHT22;8861;52.644;4.734;2023-02-28T00:30:16;4.50;99.90
17489;DHT22;8861;52.644;4.734;2023-02-28T00:32:43;4.50;99.90
17489;DHT22;8861;52.644;4.734;2023-02-28T00:35:10;4.50;99.90
17489;DHT22;8861;52.644;4.734;2023-02-28T00:37:39;4.50;99.90
17489;DHT22;8861;52.644;4.734;2023-02-28T00:40:07;4.50;99.90
17489;DHT22;8861;52.644;4.734;2023-02-28T00:42:35;4.50;99.90
17489;DHT22;8861;52.644;4.734;2023-02-28T00:45:03;4.50;99.90
17489;DHT22;8861;52.644;4.734;2023-02-28T00:47:31;4.50;99.90
17489;DHT22;8861;52.644;4.734;2023-02-28T00:49:58;4.50;99.90
17489;DHT22;8861;52.644;4.734;2023-02-28T00:52:25;4.50;99.90
17489;DHT22;8861;52.644;4.734;2023-02-28T00:54:54;4.50;99.90
17489;DHT22;8861;52.644;4.734;2023-02-28T00:57:21;4.50;99.90
17489;DHT22;8861;52.644;4.734;2023-02-28T00:59:48;4.50;99.90
17489;DHT22;8861;52.644;4.734;2023-02-28T01:02:15;4.60;99.90
17489;DHT22;8861;52.644;4.734;2023-02-28T01:04:43;4.60;99.90
17489;DHT22;8861;52.644;4.734;2023-02-28T01:07:10;4.60;99.90
17489;DHT22;8861;52.644;4.734;2023-02-28T01:09:37;4.60;99.90
17489;DHT22;8861;52.644;4.734;2023-02-28T01:12:06;4.60;99.90
17489;DHT22;8861;52.644;4.734;2023-02-28T01:14:34;4.60;99.90
17489;DHT22;8861;52.644;4.734;2023-02-28T01:17:02;4.70;99.90
17489;DHT22;8861;52.644;4.734;2023-02-28T01:19:29;4.70;99.90
17489;DHT22;8861;52.644;4.734;2023-02-28T01:21:56;4.70;99.90
17489;DHT22;8861;52.644;4.734;2023-02-28T01:24:23;4.70;99.90
17489;DHT22;8861;52.644;4.734;2023-02-28T01:26:50;4.70;99.90
17489;DHT22;8861;52.644;4.734;2023-02-28T01:29:18;4.70;99.90
17489;DHT22;8861;52.644;4.734;2023-02-28T01:31:45;4.70;99.90
17489;DHT22;8861;52.644;4.734;2023-02-28T01:34:12;4.70;99.90
17489;DHT22;8861;52.644;4.734;2023-02-28T01:36:39;4.70;99.90
17489;DHT22;8861;52.644;4.734;2023-02-28T01:39:06;4.70;99.90
17489;DHT22;8861;52.644;4.734;2023-02-28T01:41:34;4.70;99.90
17489;DHT22;8861;52.644;4.734;2023-02-28T01:44:04;4.70;99.90
17489;DHT22;8861;52.644;4.734;2023-02-28T01:46:34;4.70;99.90
17489;DHT22;8861;52.644;4.734;2023-02-28T01:49:06;4.80;99.90
17489;DHT22;8861;52.644;4.734;2023-02-28T01:51:39;4.80;99.90
17489;DHT22;8861;52.644;4.734;2023-02-28T01:54:18;4.70;99.90
17489;DHT22;8861;52.644;4.734;2023-02-28T01:56:49;4.80;99.90
17489;DHT22;8861;52.644;4.734;2023-02-28T01:59:24;4.80;99.90
17489;DHT22;8861;52.644;4.734;2023-02-28T02:01:55;4.70;99.90
17489;DHT22;8861;52.644;4.734;2023-02-28T02:04:23;4.80;99.90
17489;DHT22;8861;52.644;4.734;2023-02-28T02:06:53;4.80;99.90
17489;DHT22;8861;52.644;4.734;2023-02-28T02:09:20;4.70;99.90
17489;DHT22;8861;52.644;4.734;2023-02-28T02:11:48;4.70;99.90
17489;DHT22;8861;52.644;4.734;2023-02-28T02:14:40;4.80;99.90
17489;DHT22;8861;52.644;4.734;2023-02-28T02:17:26;4.80;99.90
17489;DHT22;8861;52.644;4.734;2023-02-28T02:20:24;4.80;99.90
17489;DHT22;8861;52.644;4.734;2023-02-28T02:25:54;4.80;99.90
17489;DHT22;8861;52.644;4.734;2023-02-28T02:31:30;4.80;99.90
17489;DHT22;8861;52.644;4.734;2023-02-28T02:34:29;4.80;99.90
17489;DHT22;8861;52.644;4.734;2023-02-28T02:37:10;4.70;99.90
17489;DHT22;8861;52.644;4.734;2023-02-28T02:39:47;4.70;99.90
17489;DHT22;8861;52.644;4.734;2023-02-28T02:42:21;4.60;99.90
17489;DHT22;8861;52.644;4.734;2023-02-28T02:44:57;4.60;99.90
17489;DHT22;8861;52.644;4.734;2023-02-28T02:47:27;4.50;99.90
17489;DHT22;8861;52.644;4.734;2023-02-28T02:50:01;4.50;99.90
17489;DHT22;8861;52.644;4.734;2023-02-28T02:52:36;4.40;99.90
17489;DHT22;8861;52.644;4.734;2023-02-28T02:55:06;4.40;99.90
17489;DHT22;8861;52.644;4.734;2023-02-28T02:57:36;4.40;99.90
17489;DHT22;8861;52.644;4.734;2023-02-28T03:00:06;4.50;99.90
17489;DHT22;8861;52.644;4.734;2023-02-28T03:02:36;4.50;99.90
17489;DHT22;8861;52.644;4.734;2023-02-28T03:05:12;4.50;99.90
17489;DHT22;8861;52.644;4.734;2023-02-28T03:07:40;4.60;99.90
17489;DHT22;8861;52.644;4.734;2023-02-28T03:10:29;4.70;99.90
17489;DHT22;8861;52.644;4.734;2023-02-28T03:13:05;4.70;99.90
17489;DHT22;8861;52.644;4.734;2023-02-28T03:15:43;4.70;99.90
17489;DHT22;8861;52.644;4.734;2023-02-28T03:18:18;4.70;99.90
17489;DHT22;8861;52.644;4.734;2023-02-28T03:20:58;4.80;99.90
17489;DHT22;8861;52.644;4.734;2023-02-28T03:23:35;4.80;99.90
17489;DHT22;8861;52.644;4.734;2023-02-28T03:26:11;4.80;99.90
17489;DHT22;8861;52.644;4.734;2023-02-28T03:28:43;4.80;99.90
17489;DHT22;8861;52.644;4.734;2023-02-28T03:31:16;4.80;99.90
17489;DHT22;8861;52.644;4.734;2023-02-28T03:33:46;4.90;99.90
17489;DHT22;8861;52.644;4.734;2023-02-28T03:36:25;4.90;99.90
17489;DHT22;8861;52.644;4.734;2023-02-28T03:38:58;4.90;99.90
17489;DHT22;8861;52.644;4.734;2023-02-28T03:41:31;4.90;99.90
17489;DHT22;8861;52.644;4.734;2023-02-28T03:44:03;4.90;99.90
17489;DHT22;8861;52.644;4.734;2023-02-28T03:46:33;4.90;99.90
17489;DHT22;8861;52.644;4.734;2023-02-28T03:49:03;4.90;99.90
17489;DHT22;8861;52.644;4.734;2023-02-28T03:51:34;4.90;99.90
17489;DHT22;8861;52.644;4.734;2023-02-28T03:54:06;4.90;99.90
17489;DHT22;8861;52.644;4.734;2023-02-28T03:56:38;5.00;99.90
17489;DHT22;8861;52.644;4.734;2023-02-28T03:59:09;5.00;99.90
17489;DHT22;8861;52.644;4.734;2023-02-28T04:01:41;5.00;99.90
17489;DHT22;8861;52.644;4.734;2023-02-28T04:04:10;5.00;99.90
17489;DHT22;8861;52.644;4.734;2023-02-28T04:06:39;5.10;99.90
17489;DHT22;8861;52.644;4.734;2023-02-28T04:09:09;5.10;99.90
17489;DHT22;8861;52.644;4.734;2023-02-28T04:11:37;5.10;99.90
17489;DHT22;8861;52.644;4.734;2023-02-28T04:14:06;5.10;99.90
17489;DHT22;8861;52.644;4.734;2023-02-28T04:16:35;5.00;99.90
17489;DHT22;8861;52.644;4.734;2023-02-28T04:19:03;5.00;99.90
17489;DHT22;8861;52.644;4.734;2023-02-28T04:21:32;5.00;99.90
17489;DHT22;8861;52.644;4.734;2023-02-28T04:24:01;5.00;99.90
17489;DHT22;8861;52.644;4.734;2023-02-28T04:26:29;4.90;99.90
17489;DHT22;8861;52.644;4.734;2023-02-28T04:28:56;4.90;99.90
17489;DHT22;8861;52.644;4.734;2023-02-28T04:31:23;4.90;99.90
17489;DHT22;8861;52.644;4.734;2023-02-28T04:33:50;4.90;99.90
17489;DHT22;8861;52.644;4.734;2023-02-28T04:36:18;4.90;99.90
17489;DHT22;8861;52.644;4.734;2023-02-28T04:38:46;4.90;99.90
17489;DHT22;8861;52.644;4.734;2023-02-28T04:41:14;4.90;99.90
17489;DHT22;8861;52.644;4.734;2023-02-28T04:43:42;4.90;99.90
17489;DHT22;8861;52.644;4.734;2023-02-28T04:46:09;4.90;99.90
17489;DHT22;8861;52.644;4.734;2023-02-28T04:48:38;4.90;99.90
17489;DHT22;8861;52.644;4.734;2023-02-28T04:51:07;4.90;99.90
17489;DHT22;8861;52.644;4.734;2023-02-28T04:53:35;4.90;99.90
17489;DHT22;8861;52.644;4.734;2023-02-28T04:56:02;4.90;99.90
17489;DHT22;8861;52.644;4.734;2023-02-28T04:58:31;4.90;99.90
17489;DHT22;8861;52.644;4.734;2023-02-28T05:01:01;5.00;99.90
17489;DHT22;8861;52.644;4.734;2023-02-28T05:03:29;5.00;99.90
17489;DHT22;8861;52.644;4.734;2023-02-28T05:05:56;5.00;99.90
17489;DHT22;8861;52.644;4.734;2023-02-28T05:08:23;5.00;99.90
17489;DHT22;8861;52.644;4.734;2023-02-28T05:10:50;5.00;99.90
17489;DHT22;8861;52.644;4.734;2023-02-28T05:13:17;5.00;99.90
17489;DHT22;8861;52.644;4.734;2023-02-28T05:15:46;5.10;99.90
17489;DHT22;8861;52.644;4.734;2023-02-28T05:18:13;5.10;99.90
17489;DHT22;8861;52.644;4.734;2023-02-28T05:20:40;5.10;99.90
17489;DHT22;8861;52.644;4.734;2023-02-28T05:23:09;5.10;99.90
17489;DHT22;8861;52.644;4.734;2023-02-28T05:25:39;5.10;99.90
17489;DHT22;8861;52.644;4.734;2023-02-28T05:28:06;5.10;99.90
17489;DHT22;8861;52.644;4.734;2023-02-28T05:30:33;5.10;99.90
17489;DHT22;8861;52.644;4.734;2023-02-28T05:33:02;5.10;99.90
17489;DHT22;8861;52.644;4.734;2023-02-28T05:35:29;5.20;99.90
17489;DHT22;8861;52.644;4.734;2023-02-28T05:37:56;5.20;99.90
17489;DHT22;8861;52.644;4.734;2023-02-28T05:40:23;5.20;99.90
17489;DHT22;8861;52.644;4.734;2023-02-28T05:42:52;5.20;99.90
17489;DHT22;8861;52.644;4.734;2023-02-28T05:45:19;5.20;99.90
17489;DHT22;8861;52.644;4.734;2023-02-28T05:47:46;5.20;99.90
17489;DHT22;8861;52.644;4.734;2023-02-28T05:50:15;5.20;99.90
17489;DHT22;8861;52.644;4.734;2023-02-28T05:52:42;5.20;99.90
17489;DHT22;8861;52.644;4.734;2023-02-28T05:55:09;5.20;99.90
17489;DHT22;8861;52.644;4.734;2023-02-28T05:57:36;5.20;99.90
17489;DHT22;8861;52.644;4.734;2023-02-28T06:00:04;5.20;99.90
17489;DHT22;8861;52.644;4.734;2023-02-28T06:02:31;5.10;99.90
17489;DHT22;8861;52.644;4.734;2023-02-28T06:04:58;5.10;99.90
17489;DHT22;8861;52.644;4.734;2023-02-28T06:07:26;5.10;99.90
17489;DHT22;8861;52.644;4.734;2023-02-28T06:09:53;5.10;99.90
17489;DHT22;8861;52.644;4.734;2023-02-28T06:12:20;5.10;99.90
17489;DHT22;8861;52.644;4.734;2023-02-28T06:14:47;5.10;99.90
17489;DHT22;8861;52.644;4.734;2023-02-28T06:17:14;5.10;99.90
17489;DHT22;8861;52.644;4.734;2023-02-28T06:19:41;5.10;99.90
17489;DHT22;8861;52.644;4.734;2023-02-28T06:22:08;5.20;99.90
17489;DHT22;8861;52.644;4.734;2023-02-28T06:24:36;5.20;99.90
17489;DHT22;8861;52.644;4.734;2023-02-28T06:27:03;5.20;99.90
17489;DHT22;8861;52.644;4.734;2023-02-28T06:29:31;5.20;99.90
17489;DHT22;8861;52.644;4.734;2023-02-28T06:31:58;5.20;99.90
17489;DHT22;8861;52.644;4.734;2023-02-28T06:34:25;5.10;99.90
17489;DHT22;8861;52.644;4.734;2023-02-28T06:36:52;5.20;99.90
17489;DHT22;8861;52.644;4.734;2023-02-28T06:39:19;5.20;99.90
17489;DHT22;8861;52.644;4.734;2023-02-28T06:41:48;5.20;99.90
17489;DHT22;8861;52.644;4.734;2023-02-28T06:44:18;5.20;99.90
17489;DHT22;8861;52.644;4.734;2023-02-28T06:46:45;5.20;99.90
17489;DHT22;8861;52.644;4.734;2023-02-28T06:49:12;5.20;99.90
17489;DHT22;8861;52.644;4.734;2023-02-28T06:51:43;5.30;99.90
17489;DHT22;8861;52.644;4.734;2023-02-28T06:54:11;5.30;99.90
17489;DHT22;8861;52.644;4.734;2023-02-28T06:56:39;5.30;99.90
17489;DHT22;8861;52.644;4.734;2023-02-28T06:59:07;5.30;99.90
17489;DHT22;8861;52.644;4.734;2023-02-28T07:01:34;5.40;99.90
17489;DHT22;8861;52.644;4.734;2023-02-28T07:04:02;5.40;99.90
17489;DHT22;8861;52.644;4.734;2023-02-28T07:06:29;5.40;99.90
17489;DHT22;8861;52.644;4.734;2023-02-28T07:08:57;5.40;99.90
17489;DHT22;8861;52.644;4.734;2023-02-28T07:11:26;5.30;99.90
17489;DHT22;8861;52.644;4.734;2023-02-28T07:13:53;5.30;99.90
17489;DHT22;8861;52.644;4.734;2023-02-28T07:16:23;5.30;99.90
17489;DHT22;8861;52.644;4.734;2023-02-28T07:18:52;5.20;99.90
17489;DHT22;8861;52.644;4.734;2023-02-28T07:21:19;5.20;99.90
17489;DHT22;8861;52.644;4.734;2023-02-28T07:23:46;5.20;99.90
17489;DHT22;8861;52.644;4.734;2023-02-28T07:26:15;5.10;99.90
17489;DHT22;8861;52.644;4.734;2023-02-28T07:28:43;5.00;99.90
17489;DHT22;8861;52.644;4.734;2023-02-28T07:31:11;4.90;99.90
17489;DHT22;8861;52.644;4.734;2023-02-28T07:33:41;4.80;99.90
17489;DHT22;8861;52.644;4.734;2023-02-28T07:36:10;4.60;99.90
17489;DHT22;8861;52.644;4.734;2023-02-28T07:38:41;4.60;99.90
17489;DHT22;8861;52.644;4.734;2023-02-28T07:41:09;4.50;99.90
17489;DHT22;8861;52.644;4.734;2023-02-28T07:43:36;4.50;99.90
17489;DHT22;8861;52.644;4.734;2023-02-28T07:46:05;4.40;99.90
17489;DHT22;8861;52.644;4.734;2023-02-28T07:48:33;4.40;99.90
17489;DHT22;8861;52.644;4.734;2023-02-28T07:51:02;4.40;99.90
17489;DHT22;8861;52.644;4.734;2023-02-28T07:53:29;4.30;99.90
17489;DHT22;8861;52.644;4.734;2023-02-28T07:55:56;4.40;99.90
17489;DHT22;8861;52.644;4.734;2023-02-28T07:58:24;4.30;99.90
17489;DHT22;8861;52.644;4.734;2023-02-28T08:00:51;4.30;99.90
17489;DHT22;8861;52.644;4.734;2023-02-28T08:03:20;4.30;99.90
17489;DHT22;8861;52.644;4.734;2023-02-28T08:05:47;4.30;99.90
17489;DHT22;8861;52.644;4.734;2023-02-28T08:08:16;4.20;99.90
17489;DHT22;8861;52.644;4.734;2023-02-28T08:10:43;4.10;99.90
17489;DHT22;8861;52.644;4.734;2023-02-28T08:13:10;4.10;99.90
17489;DHT22;8861;52.644;4.734;2023-02-28T08:15:37;4.10;99.90
17489;DHT22;8861;52.644;4.734;2023-02-28T08:18:07;4.00;99.90
17489;DHT22;8861;52.644;4.734;2023-02-28T08:20:34;3.90;99.90
17489;DHT22;8861;52.644;4.734;2023-02-28T08:23:01;3.90;99.90
17489;DHT22;8861;52.644;4.734;2023-02-28T08:25:30;3.90;99.90
17489;DHT22;8861;52.644;4.734;2023-02-28T08:27:56;3.90;99.90
17489;DHT22;8861;52.644;4.734;2023-02-28T08:30:23;3.80;99.90
17489;DHT22;8861;52.644;4.734;2023-02-28T08:32:50;3.80;99.90
17489;DHT22;8861;52.644;4.734;2023-02-28T08:35:17;3.70;99.90
17489;DHT22;8861;52.644;4.734;2023-02-28T08:37:44;3.70;99.90
17489;DHT22;8861;52.644;4.734;2023-02-28T08:40:14;3.70;99.90
17489;DHT22;8861;52.644;4.734;2023-02-28T08:42:46;3.70;99.90
17489;DHT22;8861;52.644;4.734;2023-02-28T08:45:13;3.70;99.90
17489;DHT22;8861;52.644;4.734;2023-02-28T08:47:40;3.70;99.90
17489;DHT22;8861;52.644;4.734;2023-02-28T08:50:08;3.70;99.90
17489;DHT22;8861;52.644;4.734;2023-02-28T08:52:35;3.60;99.90
17489;DHT22;8861;52.644;4.734;2023-02-28T08:55:04;3.70;99.90
17489;DHT22;8861;52.644;4.734;2023-02-28T08:57:32;3.70;99.90
17489;DHT22;8861;52.644;4.734;2023-02-28T09:00:00;3.70;99.90
17489;DHT22;8861;52.644;4.734;2023-02-28T09:02:30;3.60;99.90
17489;DHT22;8861;52.644;4.734;2023-02-28T09:04:57;3.60;99.90
17489;DHT22;8861;52.644;4.734;2023-02-28T09:07:25;3.60;99.90
17489;DHT22;8861;52.644;4.734;2023-02-28T09:09:52;3.60;99.90
17489;DHT22;8861;52.644;4.734;2023-02-28T09:12:24;3.60;99.90
17489;DHT22;8861;52.644;4.734;2023-02-28T09:14:52;3.70;99.90
17489;DHT22;8861;52.644;4.734;2023-02-28T09:17:20;3.70;99.90
17489;DHT22;8861;52.644;4.734;2023-02-28T09:19:48;3.60;99.90
17489;DHT22;8861;52.644;4.734;2023-02-28T09:22:15;3.60;99.90
17489;DHT22;8861;52.644;4.734;2023-02-28T09:24:42;3.60;99.90
17489;DHT22;8861;52.644;4.734;2023-02-28T09:27:10;3.70;99.90
17489;DHT22;8861;52.644;4.734;2023-02-28T09:29:37;3.70;99.90
17489;DHT22;8861;52.644;4.734;2023-02-28T09:32:04;3.80;99.90
17489;DHT22;8861;52.644;4.734;2023-02-28T09:34:33;3.80;99.90
17489;DHT22;8861;52.644;4.734;2023-02-28T09:37:02;3.90;99.90
17489;DHT22;8861;52.644;4.734;2023-02-28T09:39:29;4.00;99.90
17489;DHT22;8861;52.644;4.734;2023-02-28T09:41:57;4.00;99.90
17489;DHT22;8861;52.644;4.734;2023-02-28T09:44:29;4.00;99.90
17489;DHT22;8861;52.644;4.734;2023-02-28T09:47:01;4.00;99.90
17489;DHT22;8861;52.644;4.734;2023-02-28T09:49:38;4.00;99.90
17489;DHT22;8861;52.644;4.734;2023-02-28T09:52:10;4.10;99.90
17489;DHT22;8861;52.644;4.734;2023-02-28T09:54:37;4.10;99.90
17489;DHT22;8861;52.644;4.734;2023-02-28T09:57:08;4.10;99.90
17489;DHT22;8861;52.644;4.734;2023-02-28T09:59:45;4.00;99.90
17489;DHT22;8861;52.644;4.734;2023-02-28T10:02:23;4.10;99.90
17489;DHT22;8861;52.644;4.734;2023-02-28T10:04:59;4.10;99.90
17489;DHT22;8861;52.644;4.734;2023-02-28T10:07:42;4.20;99.90
17489;DHT22;8861;52.644;4.734;2023-02-28T10:10:20;4.30;99.90
17489;DHT22;8861;52.644;4.734;2023-02-28T10:12:52;4.40;99.90
17489;DHT22;8861;52.644;4.734;2023-02-28T10:15:21;4.50;99.90
17489;DHT22;8861;52.644;4.734;2023-02-28T10:17:54;4.60;99.90
17489;DHT22;8861;52.644;4.734;2023-02-28T10:20:25;4.70;99.90
17489;DHT22;8861;52.644;4.734;2023-02-28T10:23:00;4.80;99.90
17489;DHT22;8861;52.644;4.734;2023-02-28T10:25:34;4.90;99.90
17489;DHT22;8861;52.644;4.734;2023-02-28T10:28:08;5.00;99.90
17489;DHT22;8861;52.644;4.734;2023-02-28T10:30:39;5.00;99.90
17489;DHT22;8861;52.644;4.734;2023-02-28T10:33:17;5.10;99.90
17489;DHT22;8861;52.644;4.734;2023-02-28T10:35:47;5.20;99.90
17489;DHT22;8861;52.644;4.734;2023-02-28T10:38:19;5.30;99.90
17489;DHT22;8861;52.644;4.734;2023-02-28T10:40:47;5.40;99.90
17489;DHT22;8861;52.644;4.734;2023-02-28T10:43:20;5.40;99.90
17489;DHT22;8861;52.644;4.734;2023-02-28T10:45:57;5.50;99.90
17489;DHT22;8861;52.644;4.734;2023-02-28T10:48:29;5.70;99.90
17489;DHT22;8861;52.644;4.734;2023-02-28T10:50:59;6.00;99.90
17489;DHT22;8861;52.644;4.734;2023-02-28T10:53:32;6.20;99.90
17489;DHT22;8861;52.644;4.734;2023-02-28T10:56:01;6.40;99.90
17489;DHT22;8861;52.644;4.734;2023-02-28T10:58:31;6.40;99.90
17489;DHT22;8861;52.644;4.734;2023-02-28T11:00:59;6.40;99.90
17489;DHT22;8861;52.644;4.734;2023-02-28T11:03:31;6.60;99.90
17489;DHT22;8861;52.644;4.734;2023-02-28T11:06:05;6.80;99.90
17489;DHT22;8861;52.644;4.734;2023-02-28T11:08:34;6.90;99.90
17489;DHT22;8861;52.644;4.734;2023-02-28T11:11:04;6.90;99.90
17489;DHT22;8861;52.644;4.734;2023-02-28T11:13:34;7.00;99.90
17489;DHT22;8861;52.644;4.734;2023-02-28T11:16:04;7.10;99.90
17489;DHT22;8861;52.644;4.734;2023-02-28T11:18:38;7.20;99.90
17489;DHT22;8861;52.644;4.734;2023-02-28T11:21:09;7.10;99.90
17489;DHT22;8861;52.644;4.734;2023-02-28T11:23:41;7.10;99.90
17489;DHT22;8861;52.644;4.734;2023-02-28T11:26:09;7.00;99.90
17489;DHT22;8861;52.644;4.734;2023-02-28T11:28:38;7.00;99.90
17489;DHT22;8861;52.644;4.734;2023-02-28T11:31:16;7.10;99.90
17489;DHT22;8861;52.644;4.734;2023-02-28T11:33:46;7.10;99.90
17489;DHT22;8861;52.644;4.734;2023-02-28T11:36:20;7.30;99.90
17489;DHT22;8861;52.644;4.734;2023-02-28T11:38:51;7.40;99.90
17489;DHT22;8861;52.644;4.734;2023-02-28T11:41:37;7.50;99.90
17489;DHT22;8861;52.644;4.734;2023-02-28T11:44:42;7.50;99.90
17489;DHT22;8861;52.644;4.734;2023-02-28T11:47:17;7.60;99.90
17489;DHT22;8861;52.644;4.734;2023-02-28T11:49:48;7.60;99.90
17489;DHT22;8861;52.644;4.734;2023-02-28T11:52:35;7.50;99.90
17489;DHT22;8861;52.644;4.734;2023-02-28T11:55:14;7.50;99.90
17489;DHT22;8861;52.644;4.734;2023-02-28T12:00:57;7.40;99.90
17489;DHT22;8861;52.644;4.734;2023-02-28T12:03:34;7.30;99.90
17489;DHT22;8861;52.644;4.734;2023-02-28T12:06:15;7.10;99.90
17489;DHT22;8861;52.644;4.734;2023-02-28T12:09:01;6.90;99.90
17489;DHT22;8861;52.644;4.734;2023-02-28T12:11:35;6.80;99.90
17489;DHT22;8861;52.644;4.734;2023-02-28T12:14:45;6.80;99.90
17489;DHT22;8861;52.644;4.734;2023-02-28T12:17:27;6.80;99.90
17489;DHT22;8861;52.644;4.734;2023-02-28T12:20:03;6.80;99.90
17489;DHT22;8861;52.644;4.734;2023-02-28T12:22:38;6.80;99.90
17489;DHT22;8861;52.644;4.734;2023-02-28T12:28:02;6.80;99.90
17489;DHT22;8861;52.644;4.734;2023-02-28T12:30:32;6.80;99.90
17489;DHT22;8861;52.644;4.734;2023-02-28T12:33:04;6.70;99.90
17489;DHT22;8861;52.644;4.734;2023-02-28T12:35:35;6.70;99.90
17489;DHT22;8861;52.644;4.734;2023-02-28T12:38:08;6.70;99.90
17489;DHT22;8861;52.644;4.734;2023-02-28T12:40:44;6.70;99.90
17489;DHT22;8861;52.644;4.734;2023-02-28T12:43:13;6.90;99.90
17489;DHT22;8861;52.644;4.734;2023-02-28T12:45:44;7.10;99.90
17489;DHT22;8861;52.644;4.734;2023-02-28T12:48:17;7.30;99.90
17489;DHT22;8861;52.644;4.734;2023-02-28T12:50:47;7.40;99.90
17489;DHT22;8861;52.644;4.734;2023-02-28T12:53:21;7.40;99.90
17489;DHT22;8861;52.644;4.734;2023-02-28T12:55:59;7.40;99.90
17489;DHT22;8861;52.644;4.734;2023-02-28T12:58:33;7.30;99.90
17489;DHT22;8861;52.644;4.734;2023-02-28T13:01:24;7.20;99.90
17489;DHT22;8861;52.644;4.734;2023-02-28T13:09:52;7.10;99.90
17489;DHT22;8861;52.644;4.734;2023-02-28T13:12:21;7.00;99.90
17489;DHT22;8861;52.644;4.734;2023-02-28T13:14:49;7.00;99.90
17489;DHT22;8861;52.644;4.734;2023-02-28T13:17:19;7.00;99.90
17489;DHT22;8861;52.644;4.734;2023-02-28T13:19:57;7.00;99.90
17489;DHT22;8861;52.644;4.734;2023-02-28T13:22:39;7.00;99.90
17489;DHT22;8861;52.644;4.734;2023-02-28T13:34:41;7.10;99.90
17489;DHT22;8861;52.644;4.734;2023-02-28T13:37:36;7.10;99.90
17489;DHT22;8861;52.644;4.734;2023-02-28T13:40:28;7.10;99.90
17489;DHT22;8861;52.644;4.734;2023-02-28T13:42:56;7.10;99.90
17489;DHT22;8861;52.644;4.734;2023-02-28T13:45:25;7.00;99.90
17489;DHT22;8861;52.644;4.734;2023-02-28T13:47:55;7.00;99.90
17489;DHT22;8861;52.644;4.734;2023-02-28T13:50:35;7.10;99.90
17489;DHT22;8861;52.644;4.734;2023-02-28T13:53:33;7.20;99.90
17489;DHT22;8861;52.644;4.734;2023-02-28T13:56:16;7.20;99.90
17489;DHT22;8861;52.644;4.734;2023-02-28T13:58:52;7.20;99.90
17489;DHT22;8861;52.644;4.734;2023-02-28T14:01:39;7.30;99.90
17489;DHT22;8861;52.644;4.734;2023-02-28T14:04:41;7.30;99.90
17489;DHT22;8861;52.644;4.734;2023-02-28T14:07:20;7.40;99.90
17489;DHT22;8861;52.644;4.734;2023-02-28T14:09:55;7.30;99.90
17489;DHT22;8861;52.644;4.734;2023-02-28T14:12:51;7.30;99.90
17489;DHT22;8861;52.644;4.734;2023-02-28T14:15:44;7.40;99.90
17489;DHT22;8861;52.644;4.734;2023-02-28T14:18:22;7.40;99.90
17489;DHT22;8861;52.644;4.734;2023-02-28T14:20:54;7.40;99.90
17489;DHT22;8861;52.644;4.734;2023-02-28T14:26:31;7.40;99.90
17489;DHT22;8861;52.644;4.734;2023-02-28T14:29:16;7.40;99.90
17489;DHT22;8861;52.644;4.734;2023-02-28T14:31:53;7.40;99.90
17489;DHT22;8861;52.644;4.734;2023-02-28T14:34:31;7.40;99.90
17489;DHT22;8861;52.644;4.734;2023-02-28T14:37:02;7.40;99.90
17489;DHT22;8861;52.644;4.734;2023-02-28T14:39:31;7.50;99.90
17489;DHT22;8861;52.644;4.734;2023-02-28T14:41:59;7.50;99.90
17489;DHT22;8861;52.644;4.734;2023-02-28T14:44:29;7.50;99.90
17489;DHT22;8861;52.644;4.734;2023-02-28T14:46:59;7.60;99.90
17489;DHT22;8861;52.644;4.734;2023-02-28T14:49:30;7.60;99.90
17489;DHT22;8861;52.644;4.734;2023-02-28T14:52:07;7.60;99.90
17489;DHT22;8861;52.644;4.734;2023-02-28T14:54:41;7.60;99.90
17489;DHT22;8861;52.644;4.734;2023-02-28T14:57:21;7.60;99.90
17489;DHT22;8861;52.644;4.734;2023-02-28T14:59:57;7.60;99.90
17489;DHT22;8861;52.644;4.734;2023-02-28T15:02:26;7.60;99.90
17489;DHT22;8861;52.644;4.734;2023-02-28T15:04:55;7.60;99.90
17489;DHT22;8861;52.644;4.734;2023-02-28T15:07:23;7.60;99.90
17489;DHT22;8861;52.644;4.734;2023-02-28T15:10:19;7.70;99.90
17489;DHT22;8861;52.644;4.734;2023-02-28T15:12:52;7.80;99.90
17489;DHT22;8861;52.644;4.734;2023-02-28T15:15:20;7.80;99.90
17489;DHT22;8861;52.644;4.734;2023-02-28T15:17:51;7.70;99.90
17489;DHT22;8861;52.644;4.734;2023-02-28T15:20:20;7.70;99.90
17489;DHT22;8861;52.644;4.734;2023-02-28T15:22:49;7.70;99.90
17489;DHT22;8861;52.644;4.734;2023-02-28T15:25:20;7.60;99.90
17489;DHT22;8861;52.644;4.734;2023-02-28T15:27:50;7.50;99.90
17489;DHT22;8861;52.644;4.734;2023-02-28T15:30:20;7.50;99.90
17489;DHT22;8861;52.644;4.734;2023-02-28T15:33:03;7.50;99.90
17489;DHT22;8861;52.644;4.734;2023-02-28T15:35:32;7.50;99.90
17489;DHT22;8861;52.644;4.734;2023-02-28T15:38:01;7.50;99.90
17489;DHT22;8861;52.644;4.734;2023-02-28T15:40:37;7.60;99.90
17489;DHT22;8861;52.644;4.734;2023-02-28T15:43:06;7.60;99.90
17489;DHT22;8861;52.644;4.734;2023-02-28T15:45:37;7.60;99.90
17489;DHT22;8861;52.644;4.734;2023-02-28T15:48:17;7.60;99.90
17489;DHT22;8861;52.644;4.734;2023-02-28T15:50:48;7.50;99.90
17489;DHT22;8861;52.644;4.734;2023-02-28T15:53:19;7.50;99.90
17489;DHT22;8861;52.644;4.734;2023-02-28T15:55:55;7.40;99.90
17489;DHT22;8861;52.644;4.734;2023-02-28T15:58:25;7.40;99.90
17489;DHT22;8861;52.644;4.734;2023-02-28T16:01:07;7.40;99.90
17489;DHT22;8861;52.644;4.734;2023-02-28T16:03:39;7.30;99.90
17489;DHT22;8861;52.644;4.734;2023-02-28T16:06:26;7.20;99.90
17489;DHT22;8861;52.644;4.734;2023-02-28T16:08:55;7.10;99.90
17489;DHT22;8861;52.644;4.734;2023-02-28T16:11:24;7.00;99.90
17489;DHT22;8861;52.644;4.734;2023-02-28T16:13:51;6.90;99.90
17489;DHT22;8861;52.644;4.734;2023-02-28T16:16:21;6.90;99.90
17489;DHT22;8861;52.644;4.734;2023-02-28T16:18:48;6.90;99.90
17489;DHT22;8861;52.644;4.734;2023-02-28T16:21:15;6.80;99.90
17489;DHT22;8861;52.644;4.734;2023-02-28T16:23:43;6.70;99.90
17489;DHT22;8861;52.644;4.734;2023-02-28T16:26:18;6.60;99.90
17489;DHT22;8861;52.644;4.734;2023-02-28T16:28:47;6.60;99.90
17489;DHT22;8861;52.644;4.734;2023-02-28T16:31:15;6.50;99.90
17489;DHT22;8861;52.644;4.734;2023-02-28T16:33:43;6.40;99.90
17489;DHT22;8861;52.644;4.734;2023-02-28T16:36:15;6.40;99.90
17489;DHT22;8861;52.644;4.734;2023-02-28T16:38:42;6.30;99.90
17489;DHT22;8861;52.644;4.734;2023-02-28T16:41:12;6.20;99.90
17489;DHT22;8861;52.644;4.734;2023-02-28T16:43:45;6.10;99.90
17489;DHT22;8861;52.644;4.734;2023-02-28T16:46:14;6.00;99.90
17489;DHT22;8861;52.644;4.734;2023-02-28T16:48:42;6.00;99.90
17489;DHT22;8861;52.644;4.734;2023-02-28T16:51:13;5.90;99.90
17489;DHT22;8861;52.644;4.734;2023-02-28T16:53:41;5.80;99.90
17489;DHT22;8861;52.644;4.734;2023-02-28T16:56:14;5.70;99.90
17489;DHT22;8861;52.644;4.734;2023-02-28T16:58:42;5.70;99.90